首页
METAR-TAF:

METAR-TAF

机场 :

Ingenika Point, 不列颠哥伦比亚, 加拿大

纬度: 56-48N, 经度: 124-54W, 海拔: 680米

当前天气观测

该预报发布于11小时和25分钟前的14:35 UTC
风速6节,风向西
温度 18°C
湿度 77%
气压 1007 hPa
能見度: 24.1公里
少量云层高于1500英尺
多云层高于2300英尺
阴天层高于4300英尺

METAR: CWWU 161435Z 26006KT 15SM FEW015 BKN023 OVC043 18/14 A2975 RMK SC2SC4SC1 LAST OBS/NXT 170700Z SLP074

时间: 19:00 (02:00 UTC)

预报

该预报发布于14小时和0分钟前的12:00 UTC
预报有效从16日的 12点(UTC)到 17日的 12点(UTC)
风速10节,风向西转西南,有时为16节阵风
能見度: 10公里
多云层高于1000英尺
阴天层高于2000英尺
从 16日的 1500点(UTC)
风速8节,风向西
能見度: 10公里
多云层高于1500英尺
阴天层高于3000英尺
从 16日的 2000点(UTC)
风速8节,风向西转西北
能見度: 8.0公里
多云层高于700英尺
阴天层高于1500英尺
小阵雨
从 17日的 0100点(UTC)
风速10节,风向北转西北,有时为16节阵风
能見度: 10公里
多云层高于1000英尺
阴天层高于2000英尺
从 17日的 0600点(UTC)
风速9节,风向
能見度: 10公里
多云层高于1500英尺
阴天层高于3000英尺

TAF: CWWU 161200Z 1612/1712 25010G16KT P6SM BKN010 OVC020 FM161500 27008KT P6SM BKN015 OVC030 FM162000 30008KT 5SM -SHRA BKN007 OVC015 FM170100 34010G16KT P6SM BKN010 OVC020 FM170600 35009KT P6SM BKN015 OVC030 RMK NXT FCST BY 161800Z

超过4000个机场的气象观测和天气预报(METAR&TAF报告)。

可查询的气象台以黄色和红色小点在地图上表示。

将鼠标移到小点上方,可查看气象台名称。

然后点击查看天气观测和预报。

如需切换地图:点击带黑十字的绿色按钮放大地图;点击带横线的绿色按钮缩小地图;或者点击绿色箭头查看邻近地区的地图。


METAR-TAF: